createdAt,value
2022-11-12T00:01:39.328Z,102486.84
2022-11-12T00:04:25.068Z,102487.75
2022-11-12T00:07:11.254Z,102483.34
2022-11-12T00:09:57.061Z,102487.97
2022-11-12T00:12:43.242Z,102482.75
2022-11-12T00:15:29.317Z,102489.63
2022-11-12T00:18:52.074Z,102481.56
2022-11-12T00:21:38.130Z,102487.50
2022-11-12T00:24:23.884Z,102480.41
2022-11-12T00:27:09.777Z,102477.31
2022-11-12T00:29:55.667Z,102475.38
2022-11-12T00:32:41.237Z,102470.19
2022-11-12T00:35:27.120Z,102469.25
2022-11-12T00:38:12.971Z,102458.59
2022-11-12T00:41:01.961Z,102459.16
2022-11-12T00:43:48.279Z,102449.47
2022-11-12T00:46:34.419Z,102458.81
2022-11-12T00:49:20.146Z,102460.06
2022-11-12T00:52:06.095Z,102457.13
2022-11-12T00:54:51.923Z,102441.66
2022-11-12T00:57:37.851Z,102447.97
2022-11-12T01:00:24.116Z,102446.84
2022-11-12T01:03:10.031Z,102445.75
2022-11-12T01:06:02.061Z,102445.91
2022-11-12T01:08:49.880Z,102449.56
2022-11-12T01:11:36.952Z,102451.09
2022-11-12T01:14:23.099Z,102444.75
2022-11-12T01:17:09.002Z,102447.72
2022-11-12T01:19:54.785Z,102451.38
2022-11-12T01:22:41.048Z,102454.56
2022-11-12T01:25:26.913Z,102458.94
2022-11-12T01:28:12.798Z,102458.34
2022-11-12T01:30:58.678Z,102457.97
2022-11-12T01:33:47.741Z,102455.38
2022-11-12T01:36:37.384Z,102455.66
2022-11-12T01:39:23.642Z,102452.06
2022-11-12T01:42:10.296Z,102452.47
2022-11-12T01:44:56.319Z,102442.47
2022-11-12T01:47:42.761Z,102440.16
2022-11-12T01:50:34.105Z,102431.53
2022-11-12T01:53:24.939Z,102422.00
2022-11-12T01:56:11.754Z,102428.81
2022-11-12T01:59:05.198Z,102423.94
2022-11-12T02:01:51.242Z,102422.41
2022-11-12T02:04:40.243Z,102423.00
2022-11-12T02:07:26.886Z,102423.63
2022-11-12T02:10:14.665Z,102426.34
2022-11-12T02:13:19.247Z,102404.00
2022-11-12T02:16:07.377Z,102400.22
2022-11-12T02:18:53.374Z,102392.53
2022-11-12T02:21:39.729Z,102392.22
2022-11-12T02:24:25.639Z,102394.78
2022-11-12T02:27:11.960Z,102390.97
2022-11-12T02:29:57.965Z,102393.09
2022-11-12T02:32:44.003Z,102389.31
2022-11-12T02:35:30.439Z,102392.78
2022-11-12T02:38:16.389Z,102380.88
2022-11-12T02:41:02.484Z,102382.41
2022-11-12T02:43:48.264Z,102379.06
2022-11-12T02:46:34.085Z,102375.63
2022-11-12T02:49:19.914Z,102379.53
2022-11-12T02:52:05.797Z,102379.31
2022-11-12T02:54:51.798Z,102378.97
2022-11-12T02:57:38.804Z,102378.88
2022-11-12T03:00:25.222Z,102376.50
2022-11-12T03:03:11.454Z,102379.59
2022-11-12T03:06:01.825Z,102380.09
2022-11-12T03:08:47.497Z,102375.44
2022-11-12T03:11:33.034Z,102368.44
2022-11-12T03:14:19.031Z,102368.34
2022-11-12T03:17:05.345Z,102364.00
2022-11-12T03:19:51.469Z,102368.94
2022-11-12T03:22:38.481Z,102373.94
2022-11-12T03:25:26.341Z,102374.50
2022-11-12T03:28:14.111Z,102362.31
2022-11-12T03:31:01.063Z,102370.53
2022-11-12T03:33:46.984Z,102367.31
2022-11-12T03:36:32.857Z,102364.22
2022-11-12T03:39:18.846Z,102375.09
2022-11-12T03:42:05.727Z,102370.28
2022-11-12T03:44:51.715Z,102357.59
2022-11-12T03:47:40.596Z,102362.22
2022-11-12T03:50:29.219Z,102360.34
2022-11-12T03:53:15.122Z,102360.72
2022-11-12T03:56:01.068Z,102359.47
2022-11-12T03:58:46.770Z,102353.00
2022-11-12T04:01:32.844Z,102355.81
2022-11-12T04:04:18.960Z,102346.84
2022-11-12T04:07:36.686Z,102351.63
2022-11-12T04:10:22.827Z,102347.03
2022-11-12T04:13:27.130Z,102343.56
2022-11-12T04:16:40.892Z,102346.38
2022-11-12T04:19:45.043Z,102347.41
2022-11-12T04:22:31.196Z,102351.72
2022-11-12T04:25:35.507Z,102344.38
2022-11-12T04:28:21.344Z,102345.78
2022-11-12T04:31:32.268Z,102331.69
2022-11-12T04:34:29.922Z,102338.13
2022-11-12T04:37:17.800Z,102338.38
2022-11-12T04:40:28.200Z,102335.22
2022-11-12T04:43:34.834Z,102335.09
2022-11-12T04:46:20.932Z,102327.53
2022-11-12T04:49:06.937Z,102324.25
2022-11-12T04:52:07.651Z,102315.72
2022-11-12T04:54:54.223Z,102306.56
2022-11-12T04:57:40.369Z,102303.34
2022-11-12T05:00:27.135Z,102299.91
2022-11-12T05:03:12.913Z,102305.75
2022-11-12T05:06:25.765Z,102292.19
2022-11-12T05:09:11.688Z,102287.66
2022-11-12T05:11:57.974Z,102298.56
2022-11-12T05:14:44.407Z,102305.06
2022-11-12T05:17:30.574Z,102294.97
2022-11-12T05:20:17.068Z,102288.66
2022-11-12T05:23:07.431Z,102294.81
2022-11-12T05:25:53.571Z,102290.00
2022-11-12T05:28:39.362Z,102282.41
2022-11-12T05:31:25.250Z,102278.94
2022-11-12T05:34:11.825Z,102282.75
2022-11-12T05:36:58.591Z,102292.63
2022-11-12T05:39:44.413Z,102293.25
2022-11-12T05:42:30.121Z,102299.84
2022-11-12T05:45:15.958Z,102296.75
2022-11-12T05:48:02.119Z,102289.97
2022-11-12T05:54:00.626Z,102273.19
2022-11-12T05:56:46.665Z,102276.78
2022-11-12T05:59:32.973Z,102275.34
2022-11-12T06:02:19.082Z,102273.75
2022-11-12T06:05:05.510Z,102279.50
2022-11-12T06:07:51.538Z,102276.31
2022-11-12T06:10:37.281Z,102271.81
2022-11-12T06:13:25.540Z,102284.44
2022-11-12T06:16:11.239Z,102266.03
2022-11-12T06:18:57.149Z,102280.78
2022-11-12T06:21:43.383Z,102284.47
2022-11-12T06:24:35.054Z,102276.69
2022-11-12T06:27:21.382Z,102270.28
2022-11-12T06:30:09.919Z,102268.63
2022-11-12T06:32:56.092Z,102270.00
2022-11-12T06:35:43.251Z,102268.47
2022-11-12T06:38:34.931Z,102258.78
2022-11-12T06:41:21.055Z,102277.81
2022-11-12T06:44:06.747Z,102273.00
2022-11-12T06:46:52.615Z,102269.47
2022-11-12T06:49:38.468Z,102267.19
2022-11-12T06:52:24.897Z,102263.66
2022-11-12T06:55:10.636Z,102268.69
2022-11-12T06:57:56.848Z,102275.75
2022-11-12T07:00:42.829Z,102279.44
2022-11-12T07:03:28.669Z,102272.22
2022-11-12T07:06:19.326Z,102272.66
2022-11-12T07:09:05.613Z,102277.53
2022-11-12T07:11:51.491Z,102269.56
2022-11-12T07:14:37.302Z,102268.31
2022-11-12T07:17:39.502Z,102282.59
2022-11-12T07:20:30.682Z,102273.31
2022-11-12T07:23:17.235Z,102264.81
2022-11-12T07:26:06.149Z,102265.44
2022-11-12T07:28:53.026Z,102264.66
2022-11-12T07:31:39.028Z,102274.81
2022-11-12T07:34:25.330Z,102266.63
2022-11-12T07:37:11.266Z,102262.88
2022-11-12T07:39:58.115Z,102271.75
2022-11-12T07:42:49.073Z,102273.13
2022-11-12T07:45:34.960Z,102270.03
2022-11-12T07:48:24.004Z,102269.75
2022-11-12T07:51:19.306Z,102267.13
2022-11-12T07:54:05.423Z,102252.63
2022-11-12T07:56:51.408Z,102264.72
2022-11-12T07:59:40.588Z,102265.25
2022-11-12T08:02:29.488Z,102276.31
2022-11-12T08:05:20.999Z,102266.03
2022-11-12T08:08:07.366Z,102262.66
2022-11-12T08:10:59.908Z,102279.88
2022-11-12T08:13:46.029Z,102278.47
2022-11-12T08:16:33.022Z,102273.38
2022-11-12T08:19:18.779Z,102277.41
2022-11-12T08:22:05.122Z,102270.25
2022-11-12T08:24:50.976Z,102257.63
2022-11-12T08:27:37.253Z,102260.50
2022-11-12T08:30:22.949Z,102264.78
2022-11-12T08:33:08.747Z,102268.41
2022-11-12T08:35:55.150Z,102264.16
2022-11-12T08:38:41.459Z,102268.59
2022-11-12T08:41:27.293Z,102259.06
2022-11-12T08:44:13.108Z,102268.94
2022-11-12T08:46:59.538Z,102267.44
2022-11-12T08:49:48.144Z,102261.75
2022-11-12T08:52:34.342Z,102262.16
2022-11-12T08:55:20.133Z,102260.16
2022-11-12T08:58:06.913Z,102247.50
2022-11-12T09:00:53.328Z,102251.38
2022-11-12T09:03:39.383Z,102255.03
2022-11-12T09:06:25.143Z,102261.84
2022-11-12T09:09:10.900Z,102255.38
2022-11-12T09:11:59.526Z,102247.22
2022-11-12T09:14:46.090Z,102248.56
2022-11-12T09:17:35.338Z,102261.88
2022-11-12T09:20:20.944Z,102246.19
2022-11-12T09:23:09.841Z,102250.34
2022-11-12T09:25:57.257Z,102257.34
2022-11-12T09:28:49.499Z,102257.53
2022-11-12T09:31:35.976Z,102258.47
2022-11-12T09:34:22.774Z,102251.91
2022-11-12T09:37:09.256Z,102244.28
2022-11-12T09:39:55.005Z,102249.97
2022-11-12T09:42:44.626Z,102251.56
2022-11-12T09:45:32.991Z,102252.41
2022-11-12T09:48:26.489Z,102249.69
2022-11-12T09:51:25.773Z,102261.81
2022-11-12T09:54:27.167Z,102260.00
2022-11-12T09:57:13.264Z,102243.00
2022-11-12T09:59:59.564Z,102244.06
2022-11-12T10:03:00.674Z,102240.53
2022-11-12T10:05:57.941Z,102236.09
2022-11-12T10:08:53.132Z,102228.16
2022-11-12T10:12:06.475Z,102216.97
2022-11-12T10:15:52.802Z,102210.78
2022-11-12T10:19:01.005Z,102187.91
2022-11-12T10:22:02.966Z,102189.44
2022-11-12T10:24:49.595Z,102180.00
2022-11-12T10:27:40.313Z,102185.22
2022-11-12T10:30:26.332Z,102180.94
2022-11-12T10:33:15.214Z,102190.34
2022-11-12T10:36:17.132Z,102180.91
2022-11-12T10:39:04.844Z,102179.59
2022-11-12T10:42:02.570Z,102185.22
2022-11-12T10:44:49.014Z,102182.78
2022-11-12T10:47:43.083Z,102180.13
2022-11-12T10:50:30.473Z,102183.75
2022-11-12T10:53:31.825Z,102170.59
2022-11-12T10:56:30.071Z,102167.91
2022-11-12T10:59:21.888Z,102167.97
2022-11-12T11:02:17.577Z,102162.34
2022-11-12T11:05:28.059Z,102160.00
2022-11-12T11:08:14.249Z,102147.66
2022-11-12T11:11:22.799Z,102152.06
2022-11-12T11:14:23.753Z,102148.47
2022-11-12T11:17:17.598Z,102145.88
2022-11-12T11:20:24.693Z,102124.72
2022-11-12T11:23:26.566Z,102118.53
2022-11-12T11:26:28.077Z,102123.84
2022-11-12T11:29:35.251Z,102107.94
2022-11-12T11:33:04.186Z,102115.88
2022-11-12T11:35:55.638Z,102114.13
2022-11-12T11:39:13.562Z,102103.50
2022-11-12T11:42:17.443Z,102094.69
2022-11-12T11:45:21.235Z,102102.63
2022-11-12T11:48:09.811Z,102111.47
2022-11-12T11:51:29.046Z,102097.28
2022-11-12T11:55:01.197Z,102105.31
2022-11-12T11:58:37.472Z,102090.22
2022-11-12T12:02:04.604Z,102086.78
2022-11-12T12:04:55.546Z,102077.06
2022-11-12T12:08:24.974Z,102082.38
2022-11-12T12:11:24.187Z,102087.66
2022-11-12T12:14:25.226Z,102081.47
2022-11-12T12:17:19.948Z,102075.25
2022-11-12T12:20:31.634Z,102070.88
2022-11-12T12:23:33.643Z,102063.81
2022-11-12T12:26:23.231Z,102068.22
2022-11-12T12:29:43.343Z,102075.16
2022-11-12T12:32:33.592Z,102072.66
2022-11-12T12:35:19.793Z,102076.84
2022-11-12T12:38:11.738Z,102075.16
2022-11-12T12:41:12.724Z,102072.50
2022-11-12T12:44:04.433Z,102073.44
2022-11-12T12:46:57.813Z,102060.94
2022-11-12T12:49:46.710Z,102058.38
2022-11-12T12:53:05.064Z,102057.63
2022-11-12T12:56:14.045Z,102061.97
2022-11-12T12:59:03.861Z,102061.00
2022-11-12T13:01:59.458Z,102054.78
2022-11-12T13:04:55.248Z,102061.00
2022-11-12T13:07:49.617Z,102061.72
2022-11-12T13:10:41.525Z,102066.19
2022-11-12T13:13:32.335Z,102056.47
2022-11-12T13:16:51.265Z,102061.88
2022-11-12T13:20:17.623Z,102064.41
2022-11-12T13:23:05.562Z,102054.81
2022-11-12T13:25:51.384Z,102043.31
2022-11-12T13:29:22.067Z,102052.31
2022-11-12T13:32:33.857Z,102055.84
2022-11-12T13:35:24.387Z,102064.66
2022-11-12T13:38:15.821Z,102054.03
2022-11-12T13:41:19.657Z,102038.22
2022-11-12T13:44:09.106Z,102046.16
2022-11-12T13:46:56.160Z,102038.22
2022-11-12T13:49:43.998Z,102045.25
2022-11-12T13:52:30.140Z,102040.88
2022-11-12T13:55:24.959Z,102042.59
2022-11-12T13:58:30.182Z,102024.88
2022-11-12T14:01:20.925Z,102034.53
2022-11-12T14:04:10.788Z,102035.44
2022-11-12T14:07:17.550Z,102026.63
2022-11-12T14:10:34.727Z,102026.63
2022-11-12T14:13:23.253Z,102040.66
2022-11-12T14:16:18.180Z,102026.53
2022-11-12T14:19:31.161Z,102036.41
2022-11-12T14:22:19.223Z,102028.34
2022-11-12T14:25:24.476Z,102022.22
2022-11-12T14:28:29.507Z,102013.41
2022-11-12T14:31:23.657Z,102007.25
2022-11-12T14:34:30.436Z,102016.13
2022-11-12T14:37:41.572Z,102009.88
2022-11-12T14:40:31.887Z,102005.31
2022-11-12T14:43:27.294Z,102016.78
2022-11-12T14:46:43.981Z,102015.97
2022-11-12T14:49:29.940Z,102015.16
2022-11-12T14:52:19.285Z,102016.88
2022-11-12T14:55:15.192Z,102011.44
2022-11-12T14:58:01.771Z,102006.97
2022-11-12T15:00:50.578Z,102020.19
2022-11-12T15:03:36.666Z,102007.97
2022-11-12T15:06:28.833Z,102007.97
2022-11-12T15:09:37.481Z,102011.41
2022-11-12T15:12:28.915Z,102005.28
2022-11-12T15:15:23.534Z,102015.91
2022-11-12T15:18:19.229Z,102019.50
2022-11-12T15:21:28.476Z,102010.44
2022-11-12T15:24:19.225Z,102010.28
2022-11-12T15:27:39.101Z,101998.03
2022-11-12T15:30:31.611Z,102004.13
2022-11-12T15:33:23.576Z,102009.41
2022-11-12T15:36:27.641Z,102016.47
2022-11-12T15:39:14.368Z,102004.00
2022-11-12T15:42:06.756Z,102008.50
2022-11-12T15:44:59.449Z,102007.59
2022-11-12T15:47:45.908Z,102015.53
2022-11-12T15:50:31.888Z,101998.00
2022-11-12T15:53:18.079Z,101997.94
2022-11-12T15:56:06.550Z,102012.03
2022-11-12T15:58:52.505Z,102006.53
2022-11-12T16:01:38.572Z,102005.59
2022-11-12T16:04:25.751Z,102010.84
2022-11-12T16:07:12.125Z,101997.56
2022-11-12T16:09:57.809Z,102007.06
2022-11-12T16:12:44.532Z,102001.00
2022-11-12T16:15:33.983Z,101989.63
2022-11-12T16:18:20.139Z,101982.69
2022-11-12T16:21:20.448Z,101976.47
2022-11-12T16:24:07.331Z,101962.25
2022-11-12T16:26:56.214Z,101968.38
2022-11-12T16:29:42.156Z,101975.41
2022-11-12T16:32:30.723Z,101970.25
2022-11-12T16:35:19.021Z,101966.63
2022-11-12T16:38:17.011Z,101968.38
2022-11-12T16:41:35.392Z,101960.41
2022-11-12T16:44:22.509Z,101971.69
2022-11-12T16:47:11.204Z,101968.00
2022-11-12T16:49:57.611Z,101974.41
2022-11-12T16:52:44.137Z,101967.44
2022-11-12T16:55:34.815Z,101977.25
2022-11-12T16:58:24.660Z,101956.19
2022-11-12T17:01:23.457Z,101962.13
2022-11-12T17:04:09.801Z,101960.34
2022-11-12T17:06:55.919Z,101951.50
2022-11-12T17:09:42.620Z,101944.38
2022-11-12T17:12:29.704Z,101957.56
2022-11-12T17:15:16.922Z,101947.06
2022-11-12T17:18:03.369Z,101951.47
2022-11-12T17:20:51.371Z,101940.91
2022-11-12T17:23:37.794Z,101942.53
2022-11-12T17:26:24.246Z,101945.91
2022-11-12T17:29:10.166Z,101938.06
2022-11-12T17:31:55.928Z,101941.41
2022-11-12T17:34:41.928Z,101945.81
2022-11-12T17:37:27.731Z,101937.88
2022-11-12T17:40:13.606Z,101932.47
2022-11-12T17:43:04.431Z,101937.75
2022-11-12T17:45:54.180Z,101936.75
2022-11-12T17:48:41.178Z,101936.59
2022-11-12T17:51:28.496Z,101933.06
2022-11-12T17:54:14.590Z,101916.47
2022-11-12T17:57:00.382Z,101926.19
2022-11-12T17:59:46.148Z,101921.69
2022-11-12T18:02:32.135Z,101899.34
2022-11-12T18:05:18.287Z,101897.56
2022-11-12T18:08:04.704Z,101899.59
2022-11-12T18:10:51.671Z,101900.88
2022-11-12T18:13:38.637Z,101911.59
2022-11-12T18:16:27.566Z,101904.44
2022-11-12T18:19:14.247Z,101904.69
2022-11-12T18:22:02.272Z,101900.06
2022-11-12T18:24:48.271Z,101889.34
2022-11-12T18:27:34.273Z,101885.06
2022-11-12T18:30:20.023Z,101874.69
2022-11-12T18:33:06.416Z,101882.47
2022-11-12T18:36:06.243Z,101877.34
2022-11-12T18:38:53.260Z,101880.94
2022-11-12T18:41:39.357Z,101881.84
2022-11-12T18:44:26.246Z,101879.16
2022-11-12T18:47:12.236Z,101886.34
2022-11-12T18:50:49.517Z,101884.59
2022-11-12T18:53:40.047Z,101890.72
2022-11-12T18:56:26.546Z,101883.66
2022-11-12T18:59:15.558Z,101874.69
2022-11-12T19:02:01.591Z,101889.69
2022-11-12T19:04:49.668Z,101889.31
2022-11-12T19:07:35.782Z,101884.16
2022-11-12T19:10:22.082Z,101878.00
2022-11-12T19:13:07.778Z,101885.06
2022-11-12T19:15:56.504Z,101893.88
2022-11-12T19:18:43.322Z,101889.44
2022-11-12T19:21:29.340Z,101892.16
2022-11-12T19:24:15.101Z,101902.63
2022-11-12T19:27:00.889Z,101898.25
2022-11-12T19:29:49.487Z,101900.69
2022-11-12T19:32:35.464Z,101909.88
2022-11-12T19:35:21.565Z,101907.19
2022-11-12T19:38:07.270Z,101911.53
2022-11-12T19:40:53.195Z,101917.97
2022-11-12T19:43:41.592Z,101913.72
2022-11-12T19:46:32.575Z,101929.66
2022-11-12T19:49:18.651Z,101928.94
2022-11-12T19:52:04.682Z,101925.25
2022-11-12T19:54:50.562Z,101919.16
2022-11-12T19:57:36.320Z,101921.75
2022-11-12T20:00:22.250Z,101938.72
2022-11-12T20:03:07.787Z,101930.53
2022-11-12T20:06:03.026Z,101937.81
2022-11-12T20:08:49.246Z,101924.09
2022-11-12T20:11:35.654Z,101933.88
2022-11-12T20:14:21.843Z,101938.03
2022-11-12T20:17:07.628Z,101934.31
2022-11-12T20:19:53.588Z,101934.06
2022-11-12T20:22:42.458Z,101946.25
2022-11-12T20:25:28.690Z,101936.59
2022-11-12T20:28:14.372Z,101935.22
2022-11-12T20:31:11.206Z,101949.47
2022-11-12T20:33:57.157Z,101934.28
2022-11-12T20:36:42.893Z,101927.50
2022-11-12T20:39:28.650Z,101925.78
2022-11-12T20:42:14.421Z,101937.97
2022-11-12T20:45:00.594Z,101923.09
2022-11-12T20:47:46.336Z,101917.00
2022-11-12T20:50:32.062Z,101919.56
2022-11-12T20:53:18.256Z,101914.31
2022-11-12T20:56:09.750Z,101922.94
2022-11-12T20:58:56.933Z,101924.66
2022-11-12T21:01:42.969Z,101916.63
2022-11-12T21:04:28.658Z,101920.38
2022-11-12T21:07:14.923Z,101909.84
2022-11-12T21:10:00.905Z,101901.09
2022-11-12T21:12:46.700Z,101900.25
2022-11-12T21:15:32.233Z,101896.72
2022-11-12T21:18:18.798Z,101894.94
2022-11-12T21:21:06.104Z,101903.78
2022-11-12T21:23:53.915Z,101901.34
2022-11-12T21:26:40.142Z,101899.47
2022-11-12T21:29:25.982Z,101901.59
2022-11-12T21:32:11.772Z,101894.97
2022-11-12T21:34:57.540Z,101887.19
2022-11-12T21:37:43.254Z,101879.16
2022-11-12T21:40:29.084Z,101885.38
2022-11-12T21:43:14.793Z,101880.81
2022-11-12T21:46:01.069Z,101876.41
2022-11-12T21:48:52.252Z,101882.88
2022-11-12T21:51:40.438Z,101885.56
2022-11-12T21:54:26.231Z,101896.97
2022-11-12T21:57:16.122Z,101889.94
2022-11-12T22:00:39.282Z,101877.63
2022-11-12T22:03:11.232Z,101889.13
2022-11-12T22:05:56.914Z,101886.78
2022-11-12T22:08:43.207Z,101888.41
2022-11-12T22:11:29.233Z,101881.28
2022-11-12T22:14:15.063Z,101884.94
2022-11-12T22:17:00.640Z,101883.97
2022-11-12T22:19:46.415Z,101887.84
2022-11-12T22:22:32.226Z,101875.31
2022-11-12T22:25:18.138Z,101887.59
2022-11-12T22:28:04.021Z,101887.56
2022-11-12T22:30:50.152Z,101887.56
2022-11-12T22:33:36.364Z,101877.88
2022-11-12T22:36:24.247Z,101872.63
2022-11-12T22:39:10.148Z,101873.63
2022-11-12T22:41:55.940Z,101871.81
2022-11-12T22:44:41.672Z,101858.78
2022-11-12T22:47:27.658Z,101862.28
2022-11-12T22:50:13.996Z,101851.53
2022-11-12T22:53:00.323Z,101860.00
2022-11-12T22:55:46.032Z,101850.47
2022-11-12T22:58:41.608Z,101849.41
2022-11-12T23:05:11.644Z,101843.53
2022-11-12T23:07:57.954Z,101845.66
2022-11-12T23:10:46.002Z,101833.06
2022-11-12T23:13:32.457Z,101837.28
2022-11-12T23:16:26.267Z,101841.22
2022-11-12T23:19:12.303Z,101833.63
2022-11-12T23:21:58.157Z,101833.22
2022-11-12T23:24:43.905Z,101828.81
2022-11-12T23:27:29.694Z,101824.59
2022-11-12T23:30:15.918Z,101824.66
2022-11-12T23:33:02.599Z,101820.97
2022-11-12T23:35:48.703Z,101815.72
2022-11-12T23:38:34.827Z,101816.47
2022-11-12T23:41:23.012Z,101822.75
2022-11-12T23:44:09.072Z,101814.09
2022-11-12T23:46:55.064Z,101803.59
2022-11-12T23:49:40.978Z,101798.47
2022-11-12T23:52:26.837Z,101801.25
2022-11-12T23:55:12.409Z,101804.13
2022-11-12T23:57:58.285Z,101805.91
